Time;durP1;ratioP1;P1;durP2;ratioP2;P2;SDS_P1;SDS_P2;PMS_P1;PMS_P2;Temp;Humidity;BMP_temperature;BMP_pressure;BME280_temperature;BME280_humidity;BME280_pressure;Samples;Min_cycle;Max_cycle;Signal;HPM_P1;HPM_P2
2021/06/30 00:00:15;;;;;;;16.92;9.10;;;742.80;1459.20;;;;;;5096829;28;20032;-73
2021/06/30 00:02:41;;;;;;;15.95;9.40;;;742.70;1459.20;;;;;;5107103;28;20020;-75
2021/06/30 00:05:08;;;;;;;21.38;9.05;;;742.70;1459.20;;;;;;5102239;28;20035;-76
2021/06/30 00:07:34;;;;;;;27.52;10.25;;;742.70;1459.20;;;;;;5100930;28;20020;-73
2021/06/30 00:10:03;;;;;;;20.77;10.25;;;742.70;1459.20;;;;;;5109746;28;20380;-73
2021/06/30 00:12:29;;;;;;;23.40;10.23;;;742.60;1484.80;;;;;;5080200;28;20077;-74
2021/06/30 00:14:56;;;;;;;17.40;9.75;;;742.60;1459.20;;;;;;5103410;28;20024;-74
2021/06/30 00:17:22;;;;;;;18.58;10.05;;;742.60;1459.20;;;;;;5093108;28;20051;-73
2021/06/30 00:19:48;;;;;;;20.42;9.73;;;742.50;1459.20;;;;;;5106961;28;20120;-73
2021/06/30 00:22:14;;;;;;;17.00;8.85;;;742.50;1459.20;;;;;;5093470;28;20400;-74
2021/06/30 00:24:40;;;;;;;20.55;9.35;;;742.40;1459.20;;;;;;5099029;28;20050;-75
2021/06/30 00:27:06;;;;;;;22.83;9.05;;;742.40;1459.20;;;;;;5108358;28;20023;-76
2021/06/30 00:29:32;;;;;;;27.92;9.65;;;742.40;1459.20;;;;;;5113853;28;20038;-72
2021/06/30 00:31:58;;;;;;;19.73;9.43;;;742.40;1459.20;;;;;;5096489;28;20020;-72
2021/06/30 00:34:24;;;;;;;23.25;9.57;;;742.40;1459.20;;;;;;5094497;28;20020;-73
2021/06/30 00:36:50;;;;;;;23.88;9.85;;;742.40;1459.20;;;;;;5094326;28;20114;-72
2021/06/30 00:39:16;;;;;;;26.60;9.45;;;742.40;1459.20;;;;;;5092849;28;20103;-73
2021/06/30 00:41:45;;;;;;;38.35;9.55;;;742.40;1459.20;;;;;;5092968;28;20476;-73
2021/06/30 00:44:12;;;;;;;21.67;9.88;;;742.40;1459.20;;;;;;5090236;28;20028;-72
2021/06/30 00:46:39;;;;;;;18.65;9.68;;;742.40;1459.20;;;;;;5091464;28;20028;-71
2021/06/30 00:49:07;;;;;;;19.70;10.05;;;742.40;1459.20;;;;;;5093112;28;20541;-72
2021/06/30 00:51:33;;;;;;;24.63;10.00;;;742.40;1459.20;;;;;;5093243;28;20532;-72
2021/06/30 00:53:59;;;;;;;22.40;10.40;;;717.70;1433.60;;;;;;5093269;28;20107;-72
2021/06/30 00:56:27;;;;;;;15.13;8.98;;;717.70;1433.60;;;;;;5093321;28;20024;-73
2021/06/30 00:58:56;;;;;;;25.65;10.05;;;717.60;1459.20;;;;;;5093266;28;20089;-72
2021/06/30 01:01:22;;;;;;;27.48;10.52;;;717.60;1459.20;;;;;;5093567;28;20028;-72
2021/06/30 01:03:49;;;;;;;25.60;9.98;;;717.60;1459.20;;;;;;5093232;28;20028;-73
2021/06/30 01:06:15;;;;;;;21.92;10.63;;;717.60;1459.20;;;;;;5093437;28;20505;-73
2021/06/30 01:08:42;;;;;;;17.55;11.63;;;717.50;1459.20;;;;;;5097033;28;20024;-72
2021/06/30 01:11:08;;;;;;;24.73;11.43;;;717.50;1459.20;;;;;;5097004;28;20426;-72
2021/06/30 01:13:35;;;;;;;28.40;11.35;;;717.50;1459.20;;;;;;5096970;28;20496;-72
2021/06/30 01:16:01;;;;;;;19.88;11.05;;;717.30;1484.80;;;;;;5096890;28;20020;-72
2021/06/30 01:18:29;;;;;;;29.23;12.15;;;717.30;1484.80;;;;;;5095571;28;20119;-72
2021/06/30 01:20:56;;;;;;;22.80;11.68;;;717.30;1484.80;;;;;;5096771;28;20043;-73
2021/06/30 01:23:22;;;;;;;29.83;11.70;;;717.20;1484.80;;;;;;5095111;28;20047;-72
2021/06/30 01:25:49;;;;;;;18.00;11.20;;;717.20;1484.80;;;;;;5096676;28;20028;-73
2021/06/30 01:28:17;;;;;;;21.27;12.05;;;717.20;1510.40;;;;;;5096635;28;20039;-73
2021/06/30 01:30:44;;;;;;;25.52;11.27;;;717.20;1484.80;;;;;;5096611;28;20024;-72
2021/06/30 01:33:10;;;;;;;25.65;12.02;;;717.10;1510.40;;;;;;5096589;28;20050;-72
2021/06/30 01:35:36;;;;;;;24.98;12.30;;;717.00;1536.00;;;;;;5097112;28;20395;-73
2021/06/30 01:38:03;;;;;;;22.83;11.23;;;717.00;1536.00;;;;;;5096479;28;20053;-73
2021/06/30 01:40:30;;;;;;;22.10;12.45;;;716.90;1536.00;;;;;;5096582;28;20032;-72
2021/06/30 01:42:57;;;;;;;25.33;12.75;;;716.90;1536.00;;;;;;5096705;28;20016;-72
2021/06/30 01:45:23;;;;;;;21.80;11.77;;;716.90;1536.00;;;;;;5095160;28;20036;-73
2021/06/30 01:47:50;;;;;;;23.20;11.90;;;716.90;1536.00;;;;;;5096385;28;20099;-72
2021/06/30 01:50:16;;;;;;;22.67;11.77;;;716.90;1510.40;;;;;;5096606;28;20027;-73
2021/06/30 01:52:43;;;;;;;20.70;10.82;;;716.90;1536.00;;;;;;5096352;28;20024;-72
2021/06/30 01:55:11;;;;;;;19.08;10.38;;;716.80;1536.00;;;;;;5096508;28;20031;-73
2021/06/30 01:57:45;;;;;;;17.13;10.75;;;716.90;1536.00;;;;;;5096036;28;20016;-73
2021/06/30 02:00:13;;;;;;;18.48;10.55;;;716.90;1536.00;;;;;;5096040;28;20114;-73
2021/06/30 02:02:40;;;;;;;17.92;10.15;;;716.90;1510.40;;;;;;5095900;28;20028;-74
2021/06/30 02:05:10;;;;;;;19.45;9.90;;;716.80;1510.40;;;;;;5095847;28;20039;-73
2021/06/30 02:07:36;;;;;;;21.98;10.18;;;716.80;1510.40;;;;;;5095852;28;20032;-74
2021/06/30 02:10:08;;;;;;;18.58;11.15;;;716.90;1484.80;;;;;;5095936;28;20476;-73
2021/06/30 02:12:36;;;;;;;20.38;10.10;;;716.90;1510.40;;;;;;5095893;28;20153;-73
2021/06/30 02:15:05;;;;;;;21.25;9.25;;;716.90;1510.40;;;;;;5095734;28;20081;-73
2021/06/30 02:17:32;;;;;;;26.23;10.40;;;716.80;1510.40;;;;;;5095619;28;20020;-73
2021/06/30 02:19:57;;;;;;;20.02;11.13;;;692.10;1510.40;;;;;;5095637;28;20388;-73
2021/06/30 02:22:23;;;;;;;21.05;9.52;;;692.10;1510.40;;;;;;5095909;28;20031;-73
2021/06/30 02:24:49;;;;;;;17.98;9.65;;;692.00;1484.80;;;;;;5095120;28;20044;-73
2021/06/30 02:27:15;;;;;;;23.58;11.43;;;692.00;1484.80;;;;;;5094186;28;20016;-73
2021/06/30 02:29:41;;;;;;;18.23;11.23;;;692.00;1536.00;;;;;;5095512;28;20120;-73
2021/06/30 02:32:07;;;;;;;29.85;12.88;;;691.90;1536.00;;;;;;5095460;28;20484;-73
2021/06/30 02:34:34;;;;;;;44.08;12.23;;;691.90;1536.00;;;;;;5095667;28;20052;-74
2021/06/30 02:37:00;;;;;;;20.95;11.48;;;691.90;1561.60;;;;;;5095308;28;20024;-73
2021/06/30 02:39:26;;;;;;;21.60;11.98;;;691.80;1561.60;;;;;;5095253;28;20078;-74
2021/06/30 02:41:52;;;;;;;24.40;11.80;;;691.80;1536.00;;;;;;5095211;28;20032;-74
2021/06/30 02:44:18;;;;;;;21.02;11.30;;;691.70;1561.60;;;;;;5095327;28;20036;-73
2021/06/30 02:46:44;;;;;;;20.85;10.98;;;691.50;1587.20;;;;;;5095384;28;20469;-73
2021/06/30 02:49:10;;;;;;;20.02;11.13;;;691.50;1587.20;;;;;;5095094;28;20024;-73
2021/06/30 02:51:36;;;;;;;22.52;11.18;;;691.50;1561.60;;;;;;5095084;28;20016;-73
2021/06/30 02:54:02;;;;;;;18.42;12.07;;;691.40;1587.20;;;;;;5095025;28;20028;-73
2021/06/30 02:56:28;;;;;;;25.98;11.95;;;691.40;1587.20;;;;;;5095028;28;20028;-74
2021/06/30 02:58:54;;;;;;;26.30;11.80;;;691.40;1587.20;;;;;;5095159;28;20035;-73
2021/06/30 03:01:20;;;;;;;27.60;13.10;;;691.40;1561.60;;;;;;5094872;28;20414;-74
2021/06/30 03:03:45;;;;;;;21.60;11.60;;;691.30;1587.20;;;;;;5093601;28;20107;-73
2021/06/30 03:06:11;;;;;;;18.55;11.18;;;691.30;1561.60;;;;;;5094859;28;20027;-74
2021/06/30 03:08:37;;;;;;;20.92;12.20;;;691.30;1561.60;;;;;;5094718;28;20468;-73
2021/06/30 03:11:03;;;;;;;27.58;11.90;;;691.30;1587.20;;;;;;5093378;28;20028;-74
2021/06/30 03:13:29;;;;;;;27.83;12.13;;;691.30;1587.20;;;;;;5094626;28;20490;-73
2021/06/30 03:15:55;;;;;;;18.58;12.85;;;666.50;1612.80;;;;;;5094581;28;20028;-74
2021/06/30 03:18:21;;;;;;;27.25;12.25;;;691.20;1587.20;;;;;;5094833;28;20061;-73
2021/06/30 03:20:47;;;;;;;22.95;12.07;;;666.50;1612.80;;;;;;5094495;28;20019;-74
2021/06/30 03:23:13;;;;;;;21.58;11.63;;;691.20;1638.40;;;;;;5094077;28;20040;-73
2021/06/30 03:25:39;;;;;;;23.67;12.05;;;666.40;1638.40;;;;;;5094315;28;20039;-73
2021/06/30 03:28:06;;;;;;;33.30;12.80;;;;;;;;;;5093873;28;20020;-73
2021/06/30 03:30:34;;;;;;;35.38;12.88;;;;;;;;;;5094369;28;20111;-74
2021/06/30 03:33:01;;;;;;;22.98;11.43;;;666.50;1612.80;;;;;;5094298;28;20499;-73
2021/06/30 03:35:27;;;;;;;22.40;10.82;;;666.40;1587.20;;;;;;5094211;28;20024;-73
2021/06/30 03:37:53;;;;;;;24.55;11.55;;;666.30;1612.80;;;;;;5094132;28;20028;-74
2021/06/30 03:40:19;;;;;;;23.92;11.35;;;666.20;1612.80;;;;;;5094156;28;20016;-73
2021/06/30 03:42:45;;;;;;;28.58;11.55;;;666.30;1612.80;;;;;;5094061;28;20016;-73
2021/06/30 03:45:11;;;;;;;23.30;10.88;;;666.30;1612.80;;;;;;5094054;28;20036;-73
2021/06/30 03:47:37;;;;;;;28.45;10.38;;;666.30;1587.20;;;;;;5094007;28;20030;-73
2021/06/30 03:50:05;;;;;;;28.48;10.82;;;666.30;1587.20;;;;;;5092725;28;20475;-73
2021/06/30 03:52:30;;;;;;;23.15;10.38;;;666.30;1587.20;;;;;;5093926;28;20020;-73
2021/06/30 03:54:57;;;;;;;28.90;9.88;;;666.30;1587.20;;;;;;5093860;28;20028;-73
2021/06/30 03:57:23;;;;;;;25.67;10.27;;;666.30;1587.20;;;;;;5093803;28;20472;-73
2021/06/30 03:59:49;;;;;;;18.52;10.20;;;666.30;1587.20;;;;;;5092538;28;20024;-73
2021/06/30 04:02:15;;;;;;;18.50;10.38;;;666.40;1587.20;;;;;;5093561;28;20089;-73
2021/06/30 04:04:40;;;;;;;19.67;9.43;;;691.20;1561.60;;;;;;5093576;28;20035;-73
2021/06/30 04:07:06;;;;;;;28.73;9.82;;;691.20;1561.60;;;;;;5093554;28;20023;-73
2021/06/30 04:09:32;;;;;;;24.25;9.38;;;691.20;1561.60;;;;;;5093571;28;20061;-73
2021/06/30 04:11:58;;;;;;;22.02;9.32;;;691.30;1536.00;;;;;;5093775;28;20028;-73
2021/06/30 04:14:24;;;;;;;24.80;10.20;;;691.30;1561.60;;;;;;5093579;28;20032;-74
2021/06/30 04:16:50;;;;;;;24.02;10.00;;;691.30;1561.60;;;;;;5093598;28;20073;-73
2021/06/30 04:19:16;;;;;;;21.38;10.27;;;691.40;1561.60;;;;;;5093545;28;20551;-74
2021/06/30 04:21:42;;;;;;;22.15;10.27;;;691.40;1561.60;;;;;;5093464;28;20032;-74
2021/06/30 04:24:08;;;;;;;24.20;9.82;;;691.40;1536.00;;;;;;5093369;28;20040;-74
2021/06/30 04:26:36;;;;;;;25.10;9.77;;;691.50;1536.00;;;;;;5092353;28;20377;-73
2021/06/30 04:29:03;;;;;;;23.05;9.63;;;691.50;1536.00;;;;;;5093617;28;20018;-73
2021/06/30 04:31:30;;;;;;;27.38;10.38;;;691.60;1536.00;;;;;;5093552;28;20056;-73
2021/06/30 04:33:56;;;;;;;25.42;10.27;;;691.70;1536.00;;;;;;5093542;28;20020;-73
2021/06/30 04:36:22;;;;;;;24.67;9.73;;;691.70;1536.00;;;;;;5093475;28;20021;-73
2021/06/30 04:38:48;;;;;;;24.38;10.15;;;691.70;1536.00;;;;;;5093560;28;20066;-73
2021/06/30 04:41:14;;;;;;;28.13;11.48;;;691.80;1536.00;;;;;;5097133;28;20468;-74
2021/06/30 04:43:40;;;;;;;26.08;11.73;;;691.80;1536.00;;;;;;5097560;28;20039;-73
2021/06/30 04:46:07;;;;;;;39.35;10.98;;;691.80;1536.00;;;;;;5097649;28;20095;-73
2021/06/30 04:48:34;;;;;;;30.52;10.30;;;691.80;1510.40;;;;;;5097606;28;20099;-73
2021/06/30 04:51:01;;;;;;;26.40;9.95;;;691.90;1510.40;;;;;;5097597;28;20066;-73
2021/06/30 04:53:27;;;;;;;27.20;9.88;;;691.90;1510.40;;;;;;5097482;28;20379;-74
2021/06/30 04:55:53;;;;;;;26.77;9.85;;;691.90;1510.40;;;;;;5097452;28;20024;-74
2021/06/30 04:58:19;;;;;;;26.45;8.82;;;691.90;1484.80;;;;;;5097401;28;20027;-74
2021/06/30 05:00:45;;;;;;;28.75;8.50;;;692.00;1484.80;;;;;;5097271;28;20032;-73
2021/06/30 05:03:11;;;;;;;25.42;8.27;;;692.10;1484.80;;;;;;5097210;28;20027;-74
2021/06/30 05:05:37;;;;;;;28.90;8.40;;;692.10;1459.20;;;;;;5095744;28;20187;-73
2021/06/30 05:08:03;;;;;;;30.30;8.65;;;692.10;1459.20;;;;;;5095952;28;20039;-73
2021/06/30 05:10:29;;;;;;;18.88;6.97;;;692.10;1459.20;;;;;;5097460;28;20020;-73
2021/06/30 05:12:55;;;;;;;20.98;6.65;;;716.80;1484.80;;;;;;5097070;28;20020;-73
2021/06/30 05:15:22;;;;;;;26.45;7.22;;;716.80;1484.80;;;;;;5097069;28;20016;-73
2021/06/30 05:17:49;;;;;;;26.27;7.72;;;716.80;1484.80;;;;;;5097288;28;20026;-73
2021/06/30 05:20:16;;;;;;;33.40;7.28;;;716.80;1484.80;;;;;;5096950;28;20081;-73
2021/06/30 05:22:42;;;;;;;35.33;6.80;;;716.90;1459.20;;;;;;5096690;28;20073;-74
2021/06/30 05:25:08;;;;;;;19.60;6.45;;;716.90;1459.20;;;;;;5096792;28;20427;-73
2021/06/30 05:27:34;;;;;;;29.80;6.82;;;717.00;1433.60;;;;;;5095472;28;20020;-73
2021/06/30 05:30:00;;;;;;;16.92;6.47;;;717.00;1433.60;;;;;;5095065;28;20042;-74
2021/06/30 05:32:26;;;;;;;20.02;6.28;;;716.90;1459.20;;;;;;5096696;28;20039;-74
2021/06/30 05:34:52;;;;;;;26.33;6.45;;;716.90;1433.60;;;;;;5096724;28;20087;-74
2021/06/30 05:37:18;;;;;;;22.88;6.70;;;717.00;1433.60;;;;;;5096582;28;20353;-73
2021/06/30 05:39:43;;;;;;;26.75;6.68;;;717.10;1433.60;;;;;;5095367;28;20024;-73
2021/06/30 05:42:10;;;;;;;24.60;6.85;;;717.00;1433.60;;;;;;5096802;28;20024;-73
2021/06/30 05:44:36;;;;;;;22.67;6.45;;;717.10;1433.60;;;;;;5096434;28;20103;-74
2021/06/30 05:47:02;;;;;;;27.98;7.85;;;717.20;1433.60;;;;;;5096421;28;20157;-74
2021/06/30 05:49:27;;;;;;;21.60;6.43;;;717.20;1408.00;;;;;;5096323;28;20034;-72
2021/06/30 05:51:53;;;;;;;24.05;5.93;;;717.20;1408.00;;;;;;5095613;28;20025;-72
2021/06/30 05:54:19;;;;;;;26.80;7.03;;;717.30;1408.00;;;;;;5096295;28;20065;-72
2021/06/30 05:56:45;;;;;;;30.83;5.63;;;717.30;1408.00;;;;;;5096219;28;20027;-73
2021/06/30 05:59:11;;;;;;;22.55;5.75;;;717.30;1408.00;;;;;;5095695;28;20028;-73
2021/06/30 06:01:37;;;;;;;17.38;5.07;;;717.40;1408.00;;;;;;5095713;28;20024;-73
2021/06/30 06:04:03;;;;;;;19.92;5.70;;;717.50;1382.40;;;;;;5095813;28;20472;-73
2021/06/30 06:06:28;;;;;;;15.65;5.30;;;717.50;1382.40;;;;;;5094913;28;20024;-74
2021/06/30 06:08:55;;;;;;;19.33;5.57;;;717.50;1382.40;;;;;;5094807;28;20035;-73
2021/06/30 06:11:22;;;;;;;17.38;5.70;;;717.60;1356.80;;;;;;5095886;28;20017;-73
2021/06/30 06:13:48;;;;;;;17.98;5.55;;;717.70;1382.40;;;;;;5095961;28;20091;-74
2021/06/30 06:16:16;;;;;;;18.85;5.45;;;717.70;1356.80;;;;;;5096192;28;20016;-73
2021/06/30 06:18:42;;;;;;;17.75;5.57;;;742.40;1382.40;;;;;;5095810;28;20020;-74
2021/06/30 06:21:09;;;;;;;14.45;4.82;;;742.40;1382.40;;;;;;5095730;28;20420;-73
2021/06/30 06:23:35;;;;;;;21.10;5.60;;;742.50;1382.40;;;;;;5095316;28;20044;-74
2021/06/30 06:26:02;;;;;;;24.23;5.82;;;742.60;1356.80;;;;;;5095323;28;20110;-74
2021/06/30 06:28:32;;;;;;;14.13;4.90;;;742.60;1356.80;;;;;;5095117;28;20016;-73
2021/06/30 06:31:03;;;;;;;20.55;5.70;;;742.70;1331.20;;;;;;5095883;28;20110;-74
2021/06/30 06:33:29;;;;;;;24.15;5.90;;;742.90;1331.20;;;;;;5095698;28;20027;-74
2021/06/30 06:35:55;;;;;;;19.50;5.63;;;742.90;1331.20;;;;;;5095263;28;20039;-73
2021/06/30 06:38:23;;;;;;;17.85;5.53;;;743.00;1331.20;;;;;;5095742;28;20368;-72
2021/06/30 06:40:50;;;;;;;23.88;6.05;;;743.10;1305.60;;;;;;5095502;28;20157;-72
2021/06/30 06:43:16;;;;;;;20.88;4.75;;;743.20;1331.20;;;;;;5095238;28;20380;-74
2021/06/30 06:45:42;;;;;;;18.35;6.30;;;743.30;1305.60;;;;;;5094060;28;20020;-74
2021/06/30 06:48:08;;;;;;;20.30;5.38;;;768.00;1305.60;;;;;;5095289;28;20031;-74
2021/06/30 06:50:34;;;;;;;20.20;6.20;;;768.10;1305.60;;;;;;5095452;28;20028;-75
2021/06/30 06:53:00;;;;;;;25.65;5.72;;;768.20;1305.60;;;;;;5095462;28;20016;-74
2021/06/30 06:55:26;;;;;;;32.65;6.70;;;768.20;1280.00;;;;;;5093787;28;20507;-74
2021/06/30 06:57:53;;;;;;;21.15;6.47;;;768.30;1280.00;;;;;;5094883;28;20039;-72
2021/06/30 07:00:20;;;;;;;16.65;5.18;;;768.40;1305.60;;;;;;5093636;28;20020;-72
2021/06/30 07:02:46;;;;;;;25.50;5.63;;;768.50;1280.00;;;;;;5094490;28;20077;-72
2021/06/30 07:05:12;;;;;;;15.77;5.43;;;768.60;1254.40;;;;;;5094226;28;20036;-74
2021/06/30 07:07:40;;;;;;;19.77;6.13;;;768.70;1280.00;;;;;;5095571;28;20043;-73
2021/06/30 07:10:06;;;;;;;24.75;6.15;;;768.70;1280.00;;;;;;5095140;28;20388;-73
2021/06/30 07:12:32;;;;;;;17.65;5.90;;;768.80;1280.00;;;;;;5093587;28;20380;-72
2021/06/30 07:15:00;;;;;;;16.98;5.35;;;768.80;1280.00;;;;;;5094730;28;20077;-72
2021/06/30 07:17:27;;;;;;;18.80;6.28;;;768.90;1280.00;;;;;;5094667;28;20024;-72
2021/06/30 07:19:53;;;;;;;23.67;6.78;;;768.90;1280.00;;;;;;5094687;28;20054;-73
2021/06/30 07:22:19;;;;;;;17.95;5.95;;;793.60;1305.60;;;;;;5094999;28;20380;-73
2021/06/30 07:24:44;;;;;;;19.92;5.65;;;793.60;1305.60;;;;;;5094342;28;20048;-73
2021/06/30 07:27:12;;;;;;;20.00;6.03;;;768.90;1305.60;;;;;;5094585;28;20088;-74
2021/06/30 07:29:38;;;;;;;25.95;5.97;;;793.60;1331.20;;;;;;5094572;28;20031;-73
2021/06/30 07:32:04;;;;;;;14.88;5.93;;;793.60;1331.20;;;;;;5093343;28;20016;-73
2021/06/30 07:34:30;;;;;;;18.08;5.93;;;793.60;1331.20;;;;;;5094468;28;20495;-73
2021/06/30 07:36:56;;;;;;;22.50;6.45;;;793.60;1331.20;;;;;;5094660;28;20089;-72
2021/06/30 07:39:24;;;;;;;18.45;5.82;;;793.60;1331.20;;;;;;5094592;28;20463;-73
2021/06/30 07:41:51;;;;;;;19.40;6.53;;;793.80;1331.20;;;;;;5092993;28;20030;-72
2021/06/30 07:44:17;;;;;;;19.40;6.28;;;793.80;1331.20;;;;;;5094128;28;20070;-72
2021/06/30 07:46:43;;;;;;;18.00;6.00;;;793.70;1331.20;;;;;;5094181;28;20020;-74
2021/06/30 07:49:09;;;;;;;20.80;6.35;;;793.80;1305.60;;;;;;5094121;28;20042;-72
2021/06/30 07:51:35;;;;;;;17.73;6.60;;;793.80;1331.20;;;;;;5094056;28;20027;-74
2021/06/30 07:54:01;;;;;;;18.70;6.30;;;793.80;1331.20;;;;;;5092410;28;20385;-73
2021/06/30 07:56:36;;;;;;;17.80;6.45;;;793.80;1305.60;;;;;;5094057;28;20026;-74
2021/06/30 07:59:10;;;;;;;19.13;5.97;;;793.90;1305.60;;;;;;5093778;28;20035;-73
2021/06/30 08:01:36;;;;;;;21.67;6.82;;;793.90;1331.20;;;;;;5093973;28;20085;-72
2021/06/30 08:04:03;;;;;;;14.07;5.88;;;794.00;1331.20;;;;;;5093805;28;20134;-72
2021/06/30 08:06:29;;;;;;;22.48;7.03;;;793.80;1331.20;;;;;;5093616;28;20559;-73
2021/06/30 08:08:55;;;;;;;17.17;6.38;;;794.00;1305.60;;;;;;5093659;28;20060;-73
2021/06/30 08:11:24;;;;;;;21.15;6.70;;;794.00;1305.60;;;;;;5093100;28;20089;-72
2021/06/30 08:13:51;;;;;;;18.52;5.88;;;794.00;1305.60;;;;;;5093455;28;20380;-73
2021/06/30 08:16:18;;;;;;;21.67;6.22;;;794.00;1305.60;;;;;;5093142;28;20481;-72
2021/06/30 08:18:44;;;;;;;25.23;6.65;;;794.00;1331.20;;;;;;5093293;28;20036;-73
2021/06/30 08:21:10;;;;;;;15.45;6.13;;;794.00;1331.20;;;;;;5091682;28;20215;-72
2021/06/30 08:23:36;;;;;;;20.50;6.15;;;794.00;1331.20;;;;;;5092824;28;20496;-73
2021/06/30 08:26:03;;;;;;;20.90;5.93;;;794.00;1305.60;;;;;;5093333;28;20109;-72
2021/06/30 08:28:29;;;;;;;20.45;5.10;;;794.00;1331.20;;;;;;5093646;28;20484;-73
2021/06/30 08:30:55;;;;;;;23.50;6.32;;;794.10;1305.60;;;;;;5092153;28;20047;-73
2021/06/30 08:33:21;;;;;;;19.13;5.70;;;794.10;1305.60;;;;;;5092073;28;20277;-73
2021/06/30 08:35:47;;;;;;;27.48;6.00;;;794.10;1305.60;;;;;;5091622;28;20054;-72
2021/06/30 08:38:13;;;;;;;25.38;6.55;;;794.10;1331.20;;;;;;5091431;28;20052;-74
2021/06/30 08:40:38;;;;;;;27.92;5.72;;;794.10;1305.60;;;;;;5091498;28;20541;-73
2021/06/30 08:43:07;;;;;;;25.23;5.53;;;794.10;1305.60;;;;;;5091369;28;20021;-73
2021/06/30 08:45:36;;;;;;;16.33;5.68;;;794.10;1305.60;;;;;;5091392;28;20033;-72
2021/06/30 08:48:02;;;;;;;27.90;5.32;;;794.10;1305.60;;;;;;5091884;28;20091;-73
2021/06/30 08:50:29;;;;;;;21.27;6.68;;;794.10;1305.60;;;;;;5092699;28;20019;-73
2021/06/30 08:52:56;;;;;;;15.88;5.93;;;794.10;1305.60;;;;;;5093395;28;20020;-75
2021/06/30 08:55:22;;;;;;;18.30;6.03;;;794.10;1305.60;;;;;;5093377;28;20020;-75
2021/06/30 08:57:49;;;;;;;20.30;5.43;;;794.20;1305.60;;;;;;5093120;28;20126;-74
2021/06/30 09:00:16;;;;;;;21.98;5.25;;;794.10;1280.00;;;;;;5092931;28;20016;-73
2021/06/30 09:02:47;;;;;;;19.55;5.85;;;794.20;1305.60;;;;;;5093165;28;20024;-73
2021/06/30 09:05:37;;;;;;;20.83;5.72;;;794.10;1280.00;;;;;;5092471;28;20073;-74
2021/06/30 09:08:03;;;;;;;22.73;5.10;;;794.10;1280.00;;;;;;5092400;28;20479;-73
2021/06/30 09:10:39;;;;;;;17.85;5.70;;;794.00;1280.00;;;;;;5092729;28;20081;-74
2021/06/30 09:13:07;;;;;;;19.10;5.43;;;794.10;1280.00;;;;;;5090097;28;20024;-72
2021/06/30 09:15:35;;;;;;;16.88;4.95;;;794.10;1254.40;;;;;;5092594;28;20372;-74
2021/06/30 09:18:28;;;;;;;20.38;5.93;;;794.10;1254.40;;;;;;5092783;28;20381;-73
2021/06/30 09:21:16;;;;;;;18.13;4.63;;;794.10;1280.00;;;;;;5091666;28;20093;-73
2021/06/30 09:24:07;;;;;;;24.00;5.20;;;794.10;1280.00;;;;;;5092738;28;20036;-73
2021/06/30 09:26:46;;;;;;;14.88;4.32;;;794.10;1280.00;;;;;;5092641;28;20069;-74
2021/06/30 09:29:13;;;;;;;22.08;5.07;;;794.10;1280.00;;;;;;5095118;28;20694;-72
2021/06/30 09:31:49;;;;;;;16.73;5.15;;;794.20;1280.00;;;;;;5095896;28;20031;-73
2021/06/30 09:34:24;;;;;;;19.88;5.57;;;794.20;1280.00;;;;;;5093645;28;20494;-73
2021/06/30 09:36:59;;;;;;;13.27;5.57;;;794.10;1280.00;;;;;;5094057;28;20032;-74
2021/06/30 09:39:25;;;;;;;18.52;4.80;;;794.20;1280.00;;;;;;5093185;28;20024;-74
2021/06/30 09:42:03;;;;;;;17.08;5.13;;;794.20;1280.00;;;;;;5095102;28;20051;-73
2021/06/30 09:44:31;;;;;;;14.43;5.15;;;794.20;1228.80;;;;;;5093413;28;20462;-74
2021/06/30 09:46:57;;;;;;;22.30;5.28;;;794.30;1254.40;;;;;;5096241;28;20484;-74
2021/06/30 09:49:25;;;;;;;17.50;4.40;;;794.30;1228.80;;;;;;5095911;28;20479;-73
2021/06/30 09:52:05;;;;;;;16.13;5.15;;;794.30;1228.80;;;;;;5096274;28;20414;-75
2021/06/30 09:54:32;;;;;;;31.38;5.57;;;794.40;1228.80;;;;;;5096141;28;20050;-73
2021/06/30 09:57:05;;;;;;;22.35;6.07;;;794.50;1228.80;;;;;;5096098;28;20016;-74
2021/06/30 09:59:35;;;;;;;30.88;4.93;;;819.20;1228.80;;;;;;5096047;28;20020;-77
2021/06/30 10:02:07;;;;;;;26.70;5.65;;;819.20;1228.80;;;;;;5095488;28;20435;-73
2021/06/30 10:04:39;;;;;;;32.72;5.55;;;819.30;1228.80;;;;;;5093225;28;20035;-71
2021/06/30 10:07:11;;;;;;;28.85;6.75;;;819.30;1254.40;;;;;;5094787;28;20044;-72
2021/06/30 10:09:39;;;;;;;24.00;5.32;;;819.20;1254.40;;;;;;5093604;28;20020;-72
2021/06/30 10:12:07;;;;;;;42.42;7.45;;;819.20;1152.00;;;;;;5093827;28;20060;-73
2021/06/30 10:14:34;;;;;;;41.80;6.72;;;819.30;1228.80;;;;;;5103185;28;20422;-73
2021/06/30 10:17:00;;;;;;;48.08;6.45;;;819.30;1228.80;;;;;;5103572;28;20017;-72
2021/06/30 10:19:27;;;;;;;34.25;5.78;;;819.20;1254.40;;;;;;5108712;28;20024;-73
2021/06/30 10:21:53;;;;;;;35.35;6.47;;;819.20;1228.80;;;;;;5097737;28;20415;-73
2021/06/30 10:24:21;;;;;;;35.47;5.78;;;819.30;1254.40;;;;;;5109282;28;20082;-73
2021/06/30 10:26:48;;;;;;;76.90;9.23;;;819.30;1203.20;;;;;;5105396;28;20459;-73
2021/06/30 10:29:15;;;;;;;144.25;12.40;;;819.30;1152.00;;;;;;5103669;28;20031;-73
2021/06/30 10:31:45;;;;;;;100.97;10.18;;;819.40;1177.60;;;;;;5111792;28;20356;-72
2021/06/30 10:34:13;;;;;;;28.30;5.63;;;819.40;1177.60;;;;;;5083418;28;20012;-72
2021/06/30 10:36:42;;;;;;;65.85;8.05;;;819.40;1126.40;;;;;;5108152;28;20111;-72
2021/06/30 10:39:08;;;;;;;59.03;6.78;;;819.50;1177.60;;;;;;5107507;28;20065;-73
2021/06/30 10:41:54;;;;;;;51.55;6.85;;;819.40;1177.60;;;;;;5100554;28;20020;-73
2021/06/30 10:44:25;;;;;;;93.88;24.60;;;819.40;1177.60;;;;;;5100930;28;20472;-72
2021/06/30 10:46:53;;;;;;;92.90;30.50;;;819.50;1126.40;;;;;;5106682;27;20039;-75
2021/06/30 10:49:31;;;;;;;80.03;24.08;;;819.40;1177.60;;;;;;5112511;28;20464;-73
2021/06/30 10:52:01;;;;;;;43.75;12.93;;;819.40;1152.00;;;;;;5084241;28;20024;-76
2021/06/30 10:54:43;;;;;;;49.53;13.93;;;819.50;1075.20;;;;;;5107015;28;20023;-74
2021/06/30 10:57:23;;;;;;;50.67;15.85;;;819.40;1100.80;;;;;;5110061;28;20414;-73
2021/06/30 11:00:00;;;;;;;32.72;9.02;;;819.50;1152.00;;;;;;5098504;27;20053;-72
2021/06/30 11:02:27;;;;;;;37.10;9.65;;;819.50;1126.40;;;;;;5100336;28;20024;-76
2021/06/30 11:04:53;;;;;;;45.55;10.27;;;819.50;1126.40;;;;;;5094235;28;20060;-75
2021/06/30 11:07:32;;;;;;;61.25;10.30;;;819.50;1126.40;;;;;;5094399;28;20056;-76
2021/06/30 11:10:20;;;;;;;219.63;16.42;;;819.50;1126.40;;;;;;5094467;28;20026;-76
2021/06/30 11:12:59;;;;;;;146.65;20.23;;;819.50;1126.40;;;;;;5093486;28;20020;-73
2021/06/30 11:15:40;;;;;;;119.97;16.15;;;819.60;1126.40;;;;;;5094261;28;20024;-76
2021/06/30 11:18:12;;;;;;;109.20;13.75;;;819.60;1152.00;;;;;;5093498;28;20170;-73
2021/06/30 11:20:48;;;;;;;78.55;11.18;;;819.60;1152.00;;;;;;5094212;28;20034;-76
2021/06/30 11:23:18;;;;;;;83.97;11.52;;;819.50;1126.40;;;;;;5091618;28;20032;-74
2021/06/30 11:25:44;;;;;;;75.97;12.00;;;819.40;1152.00;;;;;;5096754;28;20046;-72
2021/06/30 11:28:38;;;;;;;88.07;12.32;;;819.40;1177.60;;;;;;5109506;28;20053;-73
2021/06/30 11:31:25;;;;;;;51.20;8.60;;;819.40;1177.60;;;;;;5097947;28;20026;-73
2021/06/30 11:34:13;;;;;;;59.45;8.98;;;819.40;1126.40;;;;;;5102876;28;20533;-73
2021/06/30 11:36:40;;;;;;;39.58;7.68;;;819.60;1126.40;;;;;;5110896;28;20039;-74
2021/06/30 11:39:12;;;;;;;30.00;5.95;;;819.70;1126.40;;;;;;5094112;28;20031;-75
2021/06/30 11:41:46;;;;;;;37.78;7.32;;;819.80;1075.20;;;;;;5104520;28;20073;-75
2021/06/30 11:44:13;;;;;;;29.05;6.72;;;819.90;1100.80;;;;;;5101568;28;20051;-74
2021/06/30 11:46:41;;;;;;;47.10;7.70;;;819.70;1126.40;;;;;;5080955;28;20027;-73
2021/06/30 11:49:11;;;;;;;53.13;7.38;;;819.80;1126.40;;;;;;5106229;28;20111;-75
2021/06/30 11:51:37;;;;;;;56.08;6.03;;;819.70;1152.00;;;;;;5096237;28;20393;-76
2021/06/30 11:54:11;;;;;;;58.47;5.72;;;819.80;1049.60;;;;;;5096004;28;20035;-73
2021/06/30 11:56:39;;;;;;;94.68;7.90;;;820.00;1024.00;;;;;;5079794;28;20034;-73
2021/06/30 11:59:08;;;;;;;42.13;5.90;;;844.80;1024.00;;;;;;5094190;28;20081;-75
2021/06/30 12:01:37;;;;;;;54.90;5.35;;;845.00;1024.00;;;;;;5081784;28;20016;-74
2021/06/30 12:04:07;;;;;;;25.50;5.00;;;845.00;998.40;;;;;;5105721;28;20131;-73
2021/06/30 12:06:33;;;;;;;28.33;4.40;;;845.00;1049.60;;;;;;5094461;28;20384;-73
2021/06/30 12:09:23;;;;;;;30.25;4.95;;;845.10;1024.00;;;;;;5108810;28;20024;-72